Time,TemperatureF,DewpointF,PressureIn,WindDirection,WindDirectionDegrees,WindSpeedMPH,WindSpeedGustMPH,Humidity,HourlyPrecipIn,Conditions,Clouds,dailyrainin,SolarRadiationWatts/m^2,SoftwareType,DateUTC
2013-04-22 00:01:00,46.4,31.1,29.80,South,180,1.7,4.6,55,0.00,BKN,BKN,0.00,0.0,WeatherDisplay:10.37,2013-04-22 06:01:00,
2013-04-22 00:06:00,46.4,31.1,29.78,South,181,3.3,7.0,55,0.00,BKN,BKN,0.00,0.0,WeatherDisplay:10.37,2013-04-22 06:06:00,
2013-04-22 00:11:00,46.5,31.2,29.78,SSW,199,2.7,5.8,55,0.00,BKN,BKN,0.00,0.0,WeatherDisplay:10.37,2013-04-22 06:11:00,
2013-04-22 00:16:00,46.6,30.8,29.78,SSW,194,2.6,6.0,54,0.00,BKN,BKN,0.00,0.0,WeatherDisplay:10.37,2013-04-22 06:16:00,
2013-04-22 00:21:00,46.7,30.9,29.78,SSW,197,1.9,4.6,54,0.00,BKN,BKN,0.00,0.0,WeatherDisplay:10.37,2013-04-22 06:21:00,
2013-04-22 00:26:00,46.7,30.5,29.78,SSW,197,0.5,2.3,53,0.00,BKN,BKN,0.00,0.0,WeatherDisplay:10.37,2013-04-22 06:26:00,
2013-04-22 00:31:00,46.7,30.0,29.78,SSW,203,2.3,3.4,52,0.00,BKN,BKN,0.00,0.0,WeatherDisplay:10.37,2013-04-22 06:31:00,
2013-04-22 00:36:00,46.7,30.0,29.78,SSW,211,0.1,0.0,52,0.00,BKN,BKN,0.00,0.0,WeatherDisplay:10.37,2013-04-22 06:36:00,
2013-04-22 00:41:00,46.6,29.9,29.78,SSW,211,0.1,1.0,52,0.00,BKN,BKN,0.00,0.0,WeatherDisplay:10.37,2013-04-22 06:41:00,
2013-04-22 00:46:00,46.5,30.3,29.77,SSW,211,2.6,4.6,53,0.00,BKN,BKN,0.00,0.0,WeatherDisplay:10.37,2013-04-22 06:46:00,
2013-04-22 00:51:00,46.3,29.6,29.77,SSW,212,0.0,0.0,52,0.00,BKN,BKN,0.00,0.0,WeatherDisplay:10.37,2013-04-22 06:51:00,
2013-04-22 00:56:00,46.2,29.5,29.77,SSW,211,0.9,2.3,52,0.00,BKN,BKN,0.00,0.0,WeatherDisplay:10.37,2013-04-22 06:56:00,
2013-04-22 01:01:00,46.0,28.9,29.77,SSW,209,2.4,4.6,51,0.00,BKN,BKN,0.00,0.0,WeatherDisplay:10.37,2013-04-22 07:01:00,
2013-04-22 01:06:00,46.0,28.9,29.76,SSW,209,1.1,3.4,51,0.00,BKN,BKN,0.00,0.0,WeatherDisplay:10.37,2013-04-22 07:06:00,
2013-04-22 01:11:00,46.0,28.4,29.76,SSW,205,0.0,1.0,50,0.00,BKN,BKN,0.00,0.0,WeatherDisplay:10.37,2013-04-22 07:11:00,
2013-04-22 01:16:00,46.0,28.4,29.76,SSW,200,0.2,1.0,50,0.00,BKN,BKN,0.00,0.0,WeatherDisplay:10.37,2013-04-22 07:16:00,
2013-04-22 01:21:00,46.0,28.4,29.76,SSW,200,0.0,0.0,50,0.00,BKN,BKN,0.00,0.0,WeatherDisplay:10.37,2013-04-22 07:21:00,
2013-04-22 01:26:00,46.0,28.9,29.76,SSW,200,0.0,0.0,51,0.00,BKN,BKN,0.00,0.0,WeatherDisplay:10.37,2013-04-22 07:26:00,
2013-04-22 01:31:00,45.8,29.2,29.76,SSW,200,0.0,0.0,52,0.00,BKN,BKN,0.00,0.0,WeatherDisplay:10.37,2013-04-22 07:31:00,
2013-04-22 01:36:00,45.4,29.3,29.77,SSW,200,0.0,1.1,53,0.00,BKN,BKN,0.00,0.0,WeatherDisplay:10.37,2013-04-22 07:36:00,
2013-04-22 01:41:00,45.1,29.9,29.77,SSW,200,0.4,1.1,55,0.00,BKN,BKN,0.00,0.0,WeatherDisplay:10.37,2013-04-22 07:41:00,
2013-04-22 01:46:00,44.8,30.0,29.77,SSW,200,0.0,0.0,56,0.00,BKN,BKN,0.00,0.0,WeatherDisplay:10.37,2013-04-22 07:46:00,
2013-04-22 01:51:00,44.5,29.8,29.77,SSW,200,0.0,0.0,56,0.00,BKN,BKN,0.00,0.0,WeatherDisplay:10.37,2013-04-22 07:51:00,
2013-04-22 01:56:00,44.3,30.0,29.77,SSW,200,0.0,0.0,57,0.00,BKN,BKN,0.00,0.0,WeatherDisplay:10.37,2013-04-22 07:56:00,
2013-04-22 02:01:00,44.0,29.7,29.76,SSW,200,0.0,0.0,57,0.00,BKN,BKN,0.00,0.0,WeatherDisplay:10.37,2013-04-22 08:01:00,
2013-04-22 02:06:00,43.7,29.5,29.76,SSW,200,0.0,0.0,57,0.00,BKN,BKN,0.00,0.0,WeatherDisplay:10.37,2013-04-22 08:06:00,
2013-04-22 02:11:00,43.2,29.4,29.76,SSW,200,0.7,2.3,58,0.00,BKN,BKN,0.00,0.0,WeatherDisplay:10.37,2013-04-22 08:11:00,
2013-04-22 02:16:00,42.9,29.5,29.76,SSW,200,0.0,0.0,59,0.00,BKN,BKN,0.00,0.0,WeatherDisplay:10.37,2013-04-22 08:16:00,
2013-04-22 02:21:00,42.5,29.6,29.76,SSW,200,0.4,1.1,60,0.00,BKN,BKN,0.00,0.0,WeatherDisplay:10.37,2013-04-22 08:21:00,
2013-04-22 02:26:00,42.3,29.4,29.77,SSW,200,0.0,0.0,60,0.00,BKN,BKN,0.00,0.0,WeatherDisplay:10.37,2013-04-22 08:26:00,
2013-04-22 02:31:00,42.1,28.8,29.77,SSW,200,0.1,0.0,59,0.00,BKN,BKN,0.00,0.0,WeatherDisplay:10.37,2013-04-22 08:31:00,
2013-04-22 02:36:00,41.9,28.6,29.77,SSW,200,0.0,0.0,59,0.00,BKN,BKN,0.00,0.0,WeatherDisplay:10.37,2013-04-22 08:36:00,
2013-04-22 02:41:00,41.8,28.5,29.76,SSW,200,2.7,3.4,59,0.00,BKN,BKN,0.00,0.0,WeatherDisplay:10.37,2013-04-22 08:41:00,
2013-04-22 02:46:00,41.7,29.2,29.76,SSW,200,1.1,3.4,61,0.00,BKN,BKN,0.00,0.0,WeatherDisplay:10.37,2013-04-22 08:46:00,
2013-04-22 02:51:00,41.6,29.1,29.75,SSW,200,0.0,0.0,61,0.00,BKN,BKN,0.00,0.0,WeatherDisplay:10.37,2013-04-22 08:51:00,
2013-04-22 02:56:00,41.5,29.0,29.75,SSW,200,0.0,0.0,61,0.00,BKN,BKN,0.00,0.0,WeatherDisplay:10.37,2013-04-22 08:56:00,
2013-04-22 03:01:00,41.2,28.8,29.75,SSW,199,0.7,2.3,61,0.00,BKN,BKN,0.00,0.0,WeatherDisplay:10.37,2013-04-22 09:01:00,
2013-04-22 03:06:00,41.1,28.7,29.76,SSW,200,0.3,2.3,61,0.00,BKN,BKN,0.00,0.0,WeatherDisplay:10.37,2013-04-22 09:06:00,
2013-04-22 03:11:00,40.9,28.5,29.75,SSW,199,0.0,0.0,61,0.00,BKN,BKN,0.00,0.0,WeatherDisplay:10.37,2013-04-22 09:11:00,
2013-04-22 03:16:00,40.7,28.7,29.75,SSW,200,0.0,0.0,62,0.00,BKN,BKN,0.00,0.0,WeatherDisplay:10.37,2013-04-22 09:16:00,
2013-04-22 03:21:00,40.6,28.6,29.74,SSW,200,1.4,2.3,62,0.00,BKN,BKN,0.00,0.0,WeatherDisplay:10.37,2013-04-22 09:21:00,
2013-04-22 03:26:00,40.3,28.7,29.74,SSW,199,0.0,0.0,63,0.00,BKN,BKN,0.00,0.0,WeatherDisplay:10.37,2013-04-22 09:26:00,
2013-04-22 03:31:00,40.1,28.5,29.75,SSW,200,0.0,0.0,63,0.00,BKN,BKN,0.00,0.0,WeatherDisplay:10.37,2013-04-22 09:31:00,
2013-04-22 03:36:00,39.9,28.7,29.74,SSW,199,0.2,1.1,64,0.00,BKN,BKN,0.00,0.0,WeatherDisplay:10.37,2013-04-22 09:36:00,
2013-04-22 03:41:00,39.7,28.5,29.74,SSW,200,0.0,0.0,64,0.00,BKN,BKN,0.00,0.0,WeatherDisplay:10.37,2013-04-22 09:41:00,
2013-04-22 03:46:00,39.5,28.7,29.74,SSW,200,0.7,2.3,65,0.00,BKN,BKN,0.00,0.0,WeatherDisplay:10.37,2013-04-22 09:46:00,
2013-04-22 03:51:00,39.3,28.5,29.75,SSW,200,0.0,0.0,65,0.00,BKN,BKN,0.00,0.0,WeatherDisplay:10.37,2013-04-22 09:51:00,
2013-04-22 03:56:00,39.1,28.7,29.75,SSW,200,1.0,2.3,66,0.00,BKN,BKN,0.00,0.0,WeatherDisplay:10.37,2013-04-22 09:56:00,
2013-04-22 04:01:00,39.0,28.6,29.75,SSW,199,1.6,2.3,66,0.00,BKN,BKN,0.00,0.0,WeatherDisplay:10.37,2013-04-22 10:01:00,
2013-04-22 04:06:00,39.0,28.2,29.76,SSW,199,0.0,1.1,65,0.00,BKN,BKN,0.00,0.0,WeatherDisplay:10.37,2013-04-22 10:06:00,
2013-04-22 04:11:00,39.1,28.3,29.77,WNW,295,2.2,3.4,65,0.00,BKN,BKN,0.00,0.0,WeatherDisplay:10.37,2013-04-22 10:11:00,
2013-04-22 04:16:00,39.2,28.0,29.77,WNW,292,0.4,2.3,64,0.00,BKN,BKN,0.00,0.0,WeatherDisplay:10.37,2013-04-22 10:16:00,
2013-04-22 04:21:00,39.2,28.0,29.77,WNW,292,0.5,2.3,64,0.00,BKN,BKN,0.00,0.0,WeatherDisplay:10.37,2013-04-22 10:21:00,
2013-04-22 04:26:00,39.1,27.9,29.77,WNW,292,1.9,3.4,64,0.00,BKN,BKN,0.00,0.0,WeatherDisplay:10.37,2013-04-22 10:26:00,
2013-04-22 04:31:00,39.0,27.5,29.77,WNW,292,0.1,1.1,63,0.00,BKN,BKN,0.00,0.0,WeatherDisplay:10.37,2013-04-22 10:31:00,
2013-04-22 04:36:00,39.0,27.5,29.77,WNW,292,0.9,2.3,63,0.00,BKN,BKN,0.00,0.0,WeatherDisplay:10.37,2013-04-22 10:36:00,
2013-04-22 04:41:00,38.9,27.4,29.77,WNW,292,0.0,0.0,63,0.00,BKN,BKN,0.00,0.0,WeatherDisplay:10.37,2013-04-22 10:41:00,
2013-04-22 04:46:00,38.9,27.4,29.77,West,280,0.0,2.3,63,0.00,BKN,BKN,0.00,0.0,WeatherDisplay:10.37,2013-04-22 10:46:00,
2013-04-22 04:51:00,38.7,27.2,29.78,West,281,0.5,2.3,63,0.00,BKN,BKN,0.00,0.0,WeatherDisplay:10.37,2013-04-22 10:51:00,
2013-04-22 04:56:00,38.7,27.2,29.78,West,280,0.3,2.0,63,0.00,BKN,BKN,0.00,0.0,WeatherDisplay:10.37,2013-04-22 10:56:00,
2013-04-22 05:01:00,38.7,27.2,29.79,West,281,0.5,2.3,63,0.00,BKN,BKN,0.00,0.0,WeatherDisplay:10.37,2013-04-22 11:01:00,
2013-04-22 05:06:00,38.7,27.2,29.78,West,276,1.0,3.4,63,0.00,BKN,BKN,0.00,0.0,WeatherDisplay:10.37,2013-04-22 11:06:00,
2013-04-22 05:11:00,38.7,27.2,29.80,WNW,294,0.4,3.4,63,0.00,BKN,BKN,0.00,0.0,WeatherDisplay:10.37,2013-04-22 11:11:00,
2013-04-22 05:16:00,38.8,27.7,29.80,NW,317,4.0,4.6,64,0.00,BKN,BKN,0.00,0.0,WeatherDisplay:10.37,2013-04-22 11:16:00,
2013-04-22 05:21:00,38.8,27.7,29.81,NW,317,1.4,3.4,64,0.00,BKN,BKN,0.00,0.0,WeatherDisplay:10.37,2013-04-22 11:21:00,
2013-04-22 05:26:00,38.9,27.8,29.81,NW,306,1.2,3.0,64,0.00,BKN,BKN,0.00,0.0,WeatherDisplay:10.37,2013-04-22 11:26:00,
2013-04-22 05:31:00,39.1,27.9,29.81,NNW,327,1.0,3.4,64,0.00,BKN,BKN,0.00,0.0,WeatherDisplay:10.37,2013-04-22 11:31:00,
2013-04-22 05:36:00,39.6,28.0,29.81,North,11,0.5,4.0,63,0.00,BKN,BKN,0.00,0.0,WeatherDisplay:10.37,2013-04-22 11:36:00,
2013-04-22 05:41:00,40.1,28.5,29.80,NE,37,0.6,2.3,63,0.00,BKN,BKN,0.00,0.0,WeatherDisplay:10.37,2013-04-22 11:41:00,
2013-04-22 05:46:00,40.6,29.0,29.79,ENE,57,3.3,6.9,63,0.00,BKN,BKN,0.00,0.0,WeatherDisplay:10.37,2013-04-22 11:46:00,
2013-04-22 05:51:00,40.9,29.7,29.79,NNE,22,3.1,4.6,64,0.00,BKN,BKN,0.00,0.0,WeatherDisplay:10.37,2013-04-22 11:51:00,
2013-04-22 05:56:00,41.1,29.8,29.79,NNE,24,0.0,0.0,64,0.00,BKN,BKN,0.00,0.0,WeatherDisplay:10.37,2013-04-22 11:56:00,
2013-04-22 06:01:00,41.1,29.8,29.80,NNE,24,0.3,2.3,64,0.00,OVC,OVC,0.00,0.0,WeatherDisplay:10.37,2013-04-22 12:01:00,
2013-04-22 06:06:00,41.1,30.2,29.82,NNE,24,0.0,0.0,65,0.00,OVC,OVC,0.00,0.0,WeatherDisplay:10.37,2013-04-22 12:06:00,
2013-04-22 06:11:00,41.1,30.2,29.82,NNE,24,0.0,0.0,65,0.00,OVC,OVC,0.00,0.0,WeatherDisplay:10.37,2013-04-22 12:11:00,
2013-04-22 06:16:00,41.1,30.6,29.82,NNE,24,0.1,2.3,66,0.00,OVC,OVC,0.00,0.0,WeatherDisplay:10.37,2013-04-22 12:16:00,
2013-04-22 06:21:00,41.2,31.1,29.82,NNE,24,0.3,2.3,67,0.00,OVC,OVC,0.00,0.0,WeatherDisplay:10.37,2013-04-22 12:21:00,
2013-04-22 06:26:00,41.4,31.6,29.81,NNE,24,0.0,0.0,68,0.00,OVC,OVC,0.00,0.0,WeatherDisplay:10.37,2013-04-22 12:26:00,
2013-04-22 06:31:00,41.4,32.0,29.81,NNE,24,0.0,0.0,69,0.00,OVC,OVC,0.00,5.0,WeatherDisplay:10.37,2013-04-22 12:31:00,
2013-04-22 06:36:00,41.4,32.0,29.82,NNE,24,0.0,0.0,69,0.00,OVC,OVC,0.00,7.0,WeatherDisplay:10.37,2013-04-22 12:36:00,
2013-04-22 06:41:00,41.4,32.3,29.82,NNE,24,1.5,2.3,70,0.00,OVC,OVC,0.00,12.0,WeatherDisplay:10.37,2013-04-22 12:41:00,
2013-04-22 06:46:00,41.5,32.4,29.82,NNE,24,0.0,0.0,70,0.00,OVC,OVC,0.00,25.0,WeatherDisplay:10.37,2013-04-22 12:46:00,
2013-04-22 06:51:00,41.5,32.8,29.81,NNE,24,0.0,0.0,71,0.00,OVC,OVC,0.00,19.0,WeatherDisplay:10.37,2013-04-22 12:51:00,
2013-04-22 06:56:00,41.5,32.8,29.82,NNE,24,0.0,0.0,71,0.00,OVC,OVC,0.00,14.0,WeatherDisplay:10.37,2013-04-22 12:56:00,
2013-04-22 07:01:00,41.5,33.1,29.82,NNE,24,0.0,1.1,72,0.00,BKN,BKN,0.00,25.0,WeatherDisplay:10.37,2013-04-22 13:01:00,
2013-04-22 07:06:00,41.5,33.1,29.82,NNE,24,0.0,0.0,72,0.00,BKN,BKN,0.00,28.0,WeatherDisplay:10.37,2013-04-22 13:06:00,
2013-04-22 07:11:00,41.4,33.4,29.82,NNE,25,0.1,2.3,73,0.00,BKN,BKN,0.00,44.0,WeatherDisplay:10.37,2013-04-22 13:11:00,
2013-04-22 07:16:00,41.4,33.4,29.82,NNE,25,0.1,1.1,73,0.00,BKN,BKN,0.00,63.0,WeatherDisplay:10.37,2013-04-22 13:16:00,
2013-04-22 07:21:00,41.4,33.4,29.82,NNE,26,0.2,1.1,73,0.00,BKN,BKN,0.00,54.0,WeatherDisplay:10.37,2013-04-22 13:21:00,
2013-04-22 07:26:00,41.4,33.4,29.82,NNE,26,0.9,2.3,73,0.00,BKN,BKN,0.00,72.0,WeatherDisplay:10.37,2013-04-22 13:26:00,
2013-04-22 07:31:00,41.5,33.8,29.82,North,355,0.0,0.0,74,0.00,BKN,BKN,0.00,58.0,WeatherDisplay:10.37,2013-04-22 13:31:00,
2013-04-22 07:36:00,41.5,33.8,29.83,North,355,0.0,0.0,74,0.00,BKN,BKN,0.00,77.0,WeatherDisplay:10.37,2013-04-22 13:36:00,
2013-04-22 07:41:00,41.5,33.8,29.83,ENE,63,0.0,1.1,74,0.00,BKN,BKN,0.00,72.0,WeatherDisplay:10.37,2013-04-22 13:41:00,
2013-04-22 07:46:00,41.6,33.9,29.83,ENE,63,0.5,2.3,74,0.00,BKN,BKN,0.00,76.0,WeatherDisplay:10.37,2013-04-22 13:46:00,
2013-04-22 07:51:00,41.6,33.9,29.82,ENE,63,0.4,2.3,74,0.00,BKN,BKN,0.00,63.0,WeatherDisplay:10.37,2013-04-22 13:51:00,
2013-04-22 07:56:00,41.7,34.0,29.83,ENE,63,0.4,2.0,74,0.00,BKN,BKN,0.00,76.0,WeatherDisplay:10.37,2013-04-22 13:56:00,
2013-04-22 08:01:00,41.8,34.1,29.83,ENE,63,0.0,0.0,74,0.00,BKN,BKN,0.00,91.0,WeatherDisplay:10.37,2013-04-22 14:01:00,
2013-04-22 08:06:00,41.8,34.1,29.85,ENE,63,0.9,2.3,74,0.00,BKN,BKN,0.00,113.0,WeatherDisplay:10.37,2013-04-22 14:06:00,
2013-04-22 08:11:00,42.1,34.4,29.85,ENE,69,1.3,3.4,74,0.00,BKN,BKN,0.00,127.0,WeatherDisplay:10.37,2013-04-22 14:11:00,
2013-04-22 08:16:00,42.3,34.6,29.84,SE,136,1.8,3.4,74,0.00,BKN,BKN,0.00,151.0,WeatherDisplay:10.37,2013-04-22 14:16:00,
2013-04-22 08:21:00,42.6,34.5,29.84,SE,136,0.1,2.0,73,0.00,BKN,BKN,0.00,230.0,WeatherDisplay:10.37,2013-04-22 14:21:00,
2013-04-22 08:26:00,42.8,35.8,29.83,SE,140,3.2,5.8,76,0.00,BKN,BKN,0.00,193.0,WeatherDisplay:10.37,2013-04-22 14:26:00,
2013-04-22 08:31:00,43.1,34.7,29.83,SE,146,5.3,6.0,72,0.00,BKN,BKN,0.00,425.0,WeatherDisplay:10.37,2013-04-22 14:31:00,
2013-04-22 08:36:00,43.4,35.0,29.83,SSE,154,4.4,5.8,72,0.00,BKN,BKN,0.00,483.0,WeatherDisplay:10.37,2013-04-22 14:36:00,
2013-04-22 08:41:00,44.0,35.2,29.82,SSE,153,5.3,9.2,71,0.00,BKN,BKN,0.00,526.0,WeatherDisplay:10.37,2013-04-22 14:41:00,
2013-04-22 08:46:00,44.3,35.1,29.82,SE,138,5.4,9.2,70,0.00,BKN,BKN,0.00,526.0,WeatherDisplay:10.37,2013-04-22 14:46:00,
2013-04-22 08:51:00,44.9,35.7,29.82,SE,129,1.8,3.4,70,0.00,BKN,BKN,0.00,550.0,WeatherDisplay:10.37,2013-04-22 14:51:00,
2013-04-22 08:56:00,45.5,35.9,29.82,SE,140,5.7,9.2,69,0.00,BKN,BKN,0.00,534.0,WeatherDisplay:10.37,2013-04-22 14:56:00,
2013-04-22 09:01:00,46.0,35.7,29.81,SE,138,1.4,4.0,67,0.00,BKN,BKN,0.00,555.0,WeatherDisplay:10.37,2013-04-22 15:01:00,
2013-04-22 09:06:00,46.7,35.9,29.81,SSE,149,0.9,2.3,66,0.00,BKN,BKN,0.00,573.0,WeatherDisplay:10.37,2013-04-22 15:06:00,
2013-04-22 09:11:00,47.6,35.6,29.82,SSW,209,2.1,4.6,63,0.00,BKN,BKN,0.00,492.0,WeatherDisplay:10.37,2013-04-22 15:11:00,
2013-04-22 09:16:00,48.1,35.3,29.82,SSW,203,1.6,3.4,61,0.00,BKN,BKN,0.00,432.0,WeatherDisplay:10.37,2013-04-22 15:16:00,
2013-04-22 09:21:00,48.3,35.0,29.82,SSW,203,0.0,0.0,60,0.00,BKN,BKN,0.00,615.0,WeatherDisplay:10.37,2013-04-22 15:21:00,
2013-04-22 09:26:00,49.4,35.7,29.81,SSW,203,0.4,2.3,59,0.00,BKN,BKN,0.00,622.0,WeatherDisplay:10.37,2013-04-22 15:26:00,
2013-04-22 09:31:00,50.1,35.4,29.81,SW,232,2.3,3.4,57,0.00,BKN,BKN,0.00,628.0,WeatherDisplay:10.37,2013-04-22 15:31:00,
2013-04-22 09:36:00,50.2,35.1,29.80,NNW,327,0.5,2.3,56,0.00,BKN,BKN,0.00,643.0,WeatherDisplay:10.37,2013-04-22 15:36:00,
2013-04-22 09:41:00,50.3,35.2,29.80,ENE,61,1.5,3.4,56,0.00,BKN,BKN,0.00,661.0,WeatherDisplay:10.37,2013-04-22 15:41:00,
2013-04-22 09:46:00,50.7,34.6,29.79,ENE,59,1.3,3.4,54,0.00,BKN,BKN,0.00,673.0,WeatherDisplay:10.37,2013-04-22 15:46:00,
2013-04-22 09:51:00,51.1,35.0,29.79,WNW,296,0.8,3.4,54,0.00,BKN,BKN,0.00,680.0,WeatherDisplay:10.37,2013-04-22 15:51:00,
2013-04-22 09:56:00,51.5,34.9,29.79,NNW,334,2.1,3.4,53,0.00,BKN,BKN,0.00,691.0,WeatherDisplay:10.37,2013-04-22 15:56:00,
2013-04-22 10:01:00,51.8,34.7,29.79,WSW,253,1.3,4.6,52,0.00,BKN,BKN,0.00,712.0,WeatherDisplay:10.37,2013-04-22 16:01:00,
2013-04-22 10:06:00,52.2,34.6,29.79,NW,310,3.8,5.8,51,0.00,BKN,BKN,0.00,726.0,WeatherDisplay:10.37,2013-04-22 16:06:00,
2013-04-22 10:11:00,52.9,34.8,29.79,NNE,13,6.3,11.5,50,0.00,BKN,BKN,0.00,747.0,WeatherDisplay:10.37,2013-04-22 16:11:00,
2013-04-22 10:16:00,53.1,35.4,29.80,NNE,13,7.3,13.8,51,0.00,BKN,BKN,0.00,216.0,WeatherDisplay:10.37,2013-04-22 16:16:00,
2013-04-22 10:21:00,52.5,35.8,29.80,NNE,32,9.4,16.1,53,0.00,BKN,BKN,0.00,817.0,WeatherDisplay:10.37,2013-04-22 16:21:00,
2013-04-22 10:26:00,51.1,36.4,29.82,East,82,10.7,20.7,57,0.00,BKN,BKN,0.00,761.0,WeatherDisplay:10.37,2013-04-22 16:26:00,
2013-04-22 10:31:00,48.6,35.3,29.85,NNE,27,12.3,21.9,60,0.00,BKN,BKN,0.00,868.0,WeatherDisplay:10.37,2013-04-22 16:31:00,
2013-04-22 10:36:00,46.5,34.6,29.87,ENE,67,17.1,24.1,63,0.00,BKN,BKN,0.00,592.0,WeatherDisplay:10.37,2013-04-22 16:36:00,
2013-04-22 10:41:00,45.2,34.5,29.89,NNW,348,10.9,20.7,66,0.00,BKN,BKN,0.00,462.0,WeatherDisplay:10.37,2013-04-22 16:41:00,
2013-04-22 10:46:00,44.0,33.4,29.89,North,360,8.8,17.3,66,0.00,BKN,BKN,0.00,206.0,WeatherDisplay:10.37,2013-04-22 16:46:00,
2013-04-22 10:51:00,42.2,32.0,29.91,ENE,66,11.1,19.5,67,0.00,BKN,BKN,0.00,178.0,WeatherDisplay:10.37,2013-04-22 16:51:00,
2013-04-22 10:56:00,41.0,31.2,29.95,NNW,333,12.3,20.7,68,0.00,BKN,BKN,0.00,90.0,WeatherDisplay:10.37,2013-04-22 16:56:00,
2013-04-22 11:01:00,40.1,30.7,29.95,North,351,11.2,19.5,69,0.00,OVC,OVC,0.00,135.0,WeatherDisplay:10.37,2013-04-22 17:01:00,
2013-04-22 11:06:00,39.4,30.4,29.98,NNW,334,8.8,12.6,70,0.00,OVC,OVC,0.00,165.0,WeatherDisplay:10.37,2013-04-22 17:06:00,
2013-04-22 11:11:00,39.1,30.1,29.98,NNE,31,4.6,11.5,70,0.00,OVC,OVC,0.00,218.0,WeatherDisplay:10.37,2013-04-22 17:11:00,
2013-04-22 11:16:00,38.6,29.3,29.99,North,350,10.9,18.4,69,0.00,OVC,OVC,0.00,125.0,WeatherDisplay:10.37,2013-04-22 17:16:00,
2013-04-22 11:21:00,38.1,28.8,29.99,NNE,17,13.5,23.0,69,0.00,OVC,OVC,0.00,255.0,WeatherDisplay:10.37,2013-04-22 17:21:00,
2013-04-22 11:26:00,37.5,28.9,29.99,North,349,10.6,17.3,71,0.00,OVC,OVC,0.00,139.0,WeatherDisplay:10.37,2013-04-22 17:26:00,
2013-04-22 11:31:00,36.3,27.8,30.02,North,360,11.6,19.5,71,0.00,-SN,-SN,0.00,190.0,WeatherDisplay:10.37,2013-04-22 17:31:00,
2013-04-22 11:36:00,35.5,27.7,30.03,NNE,30,12.7,19.5,73,0.00,-SN,-SN,0.00,172.0,WeatherDisplay:10.37,2013-04-22 17:36:00,
2013-04-22 11:41:00,34.4,27.0,30.05,NE,49,9.2,18.4,74,0.00,-SN,-SN,0.00,104.0,WeatherDisplay:10.37,2013-04-22 17:41:00,
2013-04-22 11:46:00,33.6,26.5,30.06,North,5,5.9,12.6,75,0.00,-SN,-SN,0.00,67.0,WeatherDisplay:10.37,2013-04-22 17:46:00,
2013-04-22 11:51:00,33.2,26.8,30.08,North,360,7.5,12.6,77,0.00,-SN,-SN,0.00,100.0,WeatherDisplay:10.37,2013-04-22 17:51:00,
2013-04-22 11:56:00,32.7,26.9,30.07,NNE,29,8.5,14.9,79,0.00,-SN,-SN,0.00,114.0,WeatherDisplay:10.37,2013-04-22 17:56:00,
2013-04-22 12:01:00,32.4,26.9,30.07,North,360,6.1,10.3,80,0.00,-SN,-SN,0.00,111.0,WeatherDisplay:10.37,2013-04-22 18:01:00,
2013-04-22 12:06:00,32.0,26.8,30.08,NNE,20,5.1,12.0,81,0.00,-SN,-SN,0.00,76.0,WeatherDisplay:10.37,2013-04-22 18:06:00,
2013-04-22 12:11:00,31.6,26.7,30.08,North,355,5.8,10.3,82,0.00,OVC,OVC,0.00,107.0,WeatherDisplay:10.37,2013-04-22 18:11:00,
2013-04-22 12:16:00,31.3,26.7,30.10,NNW,329,3.1,6.9,83,0.00,OVC,OVC,0.00,56.0,WeatherDisplay:10.37,2013-04-22 18:16:00,
2013-04-22 12:21:00,31.1,26.8,30.10,NNW,336,4.5,9.2,84,0.00,OVC,OVC,0.00,62.0,WeatherDisplay:10.37,2013-04-22 18:21:00,
2013-04-22 12:26:00,30.8,26.8,30.11,North,5,4.9,9.0,85,0.00,OVC,OVC,0.00,46.0,WeatherDisplay:10.37,2013-04-22 18:26:00,
2013-04-22 12:31:00,30.4,26.4,30.11,NW,321,7.4,11.0,85,0.00,-SN,-SN,0.00,69.0,WeatherDisplay:10.37,2013-04-22 18:31:00,
2013-04-22 12:36:00,30.0,26.3,30.11,NE,34,5.3,9.2,86,0.00,-SN,-SN,0.00,128.0,WeatherDisplay:10.37,2013-04-22 18:36:00,
2013-04-22 12:41:00,29.9,26.2,30.10,NNE,32,2.8,5.8,86,0.00,-SN,-SN,0.00,113.0,WeatherDisplay:10.37,2013-04-22 18:41:00,
2013-04-22 12:46:00,29.9,26.5,30.11,NNE,19,2.8,5.0,87,0.00,-SN,-SN,0.00,127.0,WeatherDisplay:10.37,2013-04-22 18:46:00,
2013-04-22 12:51:00,29.9,26.5,30.11,NNW,344,3.1,6.9,87,0.00,-SN,-SN,0.00,200.0,WeatherDisplay:10.37,2013-04-22 18:51:00,
2013-04-22 12:56:00,29.8,26.4,30.11,NE,40,8.0,12.6,87,0.00,-SN,-SN,0.00,192.0,WeatherDisplay:10.37,2013-04-22 18:56:00,
2013-04-22 13:01:00,29.8,26.4,30.11,NE,34,3.6,12.6,87,0.00,-SN,-SN,0.00,156.0,WeatherDisplay:10.37,2013-04-22 19:01:00,
2013-04-22 13:06:00,29.7,26.6,30.12,North,355,5.1,11.5,88,0.00,-SN,-SN,0.00,190.0,WeatherDisplay:10.37,2013-04-22 19:06:00,
2013-04-22 13:11:00,29.7,26.6,30.12,NNE,16,5.7,11.5,88,0.00,-SN,-SN,0.00,253.0,WeatherDisplay:10.37,2013-04-22 19:11:00,
2013-04-22 13:16:00,29.4,26.3,30.14,North,355,5.2,6.9,88,0.00,-SN,-SN,0.00,248.0,WeatherDisplay:10.37,2013-04-22 19:16:00,
2013-04-22 13:21:00,29.4,26.3,30.15,NE,48,2.5,3.4,88,0.00,-SN,-SN,0.00,141.0,WeatherDisplay:10.37,2013-04-22 19:21:00,
2013-04-22 13:26:00,29.4,26.3,30.16,NNW,342,3.4,5.8,88,0.00,-SN,-SN,0.00,169.0,WeatherDisplay:10.37,2013-04-22 19:26:00,
2013-04-22 13:31:00,29.2,26.1,30.15,NNW,348,4.7,9.2,88,0.00,-SN,-SN,0.00,218.0,WeatherDisplay:10.37,2013-04-22 19:31:00,
2013-04-22 13:36:00,29.2,26.1,30.15,NNE,29,4.1,10.0,88,0.00,-SN,-SN,0.00,167.0,WeatherDisplay:10.37,2013-04-22 19:36:00,
2013-04-22 13:41:00,29.2,26.4,30.15,NNW,346,5.9,10.3,89,0.00,-SN,-SN,0.00,237.0,WeatherDisplay:10.37,2013-04-22 19:41:00,
2013-04-22 13:46:00,29.1,26.3,30.15,NNW,344,4.8,11.5,89,0.00,-SN,-SN,0.00,127.0,WeatherDisplay:10.37,2013-04-22 19:46:00,
2013-04-22 13:51:00,28.9,26.1,30.16,NNE,21,3.7,6.9,89,0.00,-SN,-SN,0.00,163.0,WeatherDisplay:10.37,2013-04-22 19:51:00,
2013-04-22 13:56:00,28.8,26.0,30.16,North,5,4.1,6.9,89,0.00,-SN,-SN,0.00,183.0,WeatherDisplay:10.37,2013-04-22 19:56:00,
2013-04-22 14:01:00,28.7,25.9,30.15,NE,38,5.3,11.0,89,0.00,-SN,-SN,0.00,285.0,WeatherDisplay:10.37,2013-04-22 20:01:00,
2013-04-22 14:06:00,28.5,25.7,30.17,NNE,21,5.3,11.5,89,0.00,-SN,-SN,0.00,172.0,WeatherDisplay:10.37,2013-04-22 20:06:00,
2013-04-22 14:11:00,28.3,25.5,30.18,North,349,6.5,11.5,89,0.00,-SN,-SN,0.00,387.0,WeatherDisplay:10.37,2013-04-22 20:11:00,
2013-04-22 14:16:00,28.6,25.8,30.17,NNE,21,5.4,11.5,89,0.00,-SN,-SN,0.00,476.0,WeatherDisplay:10.37,2013-04-22 20:16:00,
2013-04-22 14:21:00,28.7,25.9,30.17,NNE,15,5.6,11.5,89,0.00,-SN,-SN,0.00,220.0,WeatherDisplay:10.37,2013-04-22 20:21:00,
2013-04-22 14:26:00,28.6,25.8,30.18,NNE,19,6.9,12.6,89,0.00,-SN,-SN,0.00,162.0,WeatherDisplay:10.37,2013-04-22 20:26:00,
2013-04-22 14:31:00,28.5,25.7,30.18,NNE,19,4.3,10.3,89,0.00,-SN,-SN,0.00,213.0,WeatherDisplay:10.37,2013-04-22 20:31:00,
2013-04-22 14:36:00,28.3,25.5,30.20,North,5,3.3,5.8,89,0.00,-SN,-SN,0.00,213.0,WeatherDisplay:10.37,2013-04-22 20:36:00,
2013-04-22 14:41:00,28.3,25.5,30.19,NE,45,4.9,9.2,89,0.00,-SN,-SN,0.00,204.0,WeatherDisplay:10.37,2013-04-22 20:41:00,
2013-04-22 14:46:00,28.1,25.3,30.20,North,360,5.0,9.2,89,0.00,-SN,-SN,0.00,232.0,WeatherDisplay:10.37,2013-04-22 20:46:00,
2013-04-22 14:51:00,28.1,25.3,30.20,NNE,17,6.6,13.8,89,0.00,-SN,-SN,0.00,260.0,WeatherDisplay:10.37,2013-04-22 20:51:00,
2013-04-22 14:56:00,27.9,25.1,30.20,NNE,18,6.0,11.5,89,0.00,-SN,-SN,0.00,448.0,WeatherDisplay:10.37,2013-04-22 20:56:00,
2013-04-22 15:01:00,28.2,25.4,30.20,NE,53,4.5,15.0,89,0.00,-SN,-SN,0.00,253.0,WeatherDisplay:10.37,2013-04-22 21:01:00,
2013-04-22 15:06:00,28.1,25.3,30.22,ENE,76,4.5,10.3,89,0.00,-SN,-SN,0.00,274.0,WeatherDisplay:10.37,2013-04-22 21:06:00,
2013-04-22 15:11:00,28.2,25.4,30.22,NNE,31,6.8,11.5,89,0.01,-SN,-SN,0.01,116.0,WeatherDisplay:10.37,2013-04-22 21:11:00,
2013-04-22 15:16:00,28.1,25.3,30.22,NE,55,7.2,12.6,89,0.01,-SN,-SN,0.01,179.0,WeatherDisplay:10.37,2013-04-22 21:16:00,
2013-04-22 15:21:00,27.8,24.7,30.22,ENE,69,2.6,3.4,88,0.01,-SN,-SN,0.01,105.0,WeatherDisplay:10.37,2013-04-22 21:21:00,
2013-04-22 15:26:00,27.7,24.6,30.22,NNE,30,7.3,11.5,88,0.01,-SN,-SN,0.01,230.0,WeatherDisplay:10.37,2013-04-22 21:26:00,
2013-04-22 15:31:00,27.6,24.5,30.22,ENE,57,5.6,12.0,88,0.01,-SN,-SN,0.01,214.0,WeatherDisplay:10.37,2013-04-22 21:31:00,
2013-04-22 15:36:00,27.8,24.7,30.22,NNE,17,5.1,10.0,88,0.01,-SN,-SN,0.01,141.0,WeatherDisplay:10.37,2013-04-22 21:36:00,
2013-04-22 15:41:00,27.7,24.6,30.21,North,350,3.1,11.5,88,0.01,-SN,-SN,0.01,127.0,WeatherDisplay:10.37,2013-04-22 21:41:00,
2013-04-22 15:46:00,27.7,24.6,30.21,NNE,15,5.7,10.0,88,0.01,-SN,-SN,0.01,188.0,WeatherDisplay:10.37,2013-04-22 21:46:00,
2013-04-22 15:51:00,27.7,24.6,30.20,NNE,25,3.7,8.1,88,0.01,-SN,-SN,0.01,163.0,WeatherDisplay:10.37,2013-04-22 21:51:00,
2013-04-22 15:56:00,27.8,24.7,30.22,NNW,340,7.2,11.5,88,0.01,-SN,-SN,0.01,111.0,WeatherDisplay:10.37,2013-04-22 21:56:00,
2013-04-22 16:01:00,27.8,24.7,30.21,NE,38,6.0,11.5,88,0.01,-SN,-SN,0.01,223.0,WeatherDisplay:10.37,2013-04-22 22:01:00,
2013-04-22 16:06:00,27.8,24.7,30.20,NNE,29,6.2,9.2,88,0.01,-SN,-SN,0.01,195.0,WeatherDisplay:10.37,2013-04-22 22:06:00,
2013-04-22 16:11:00,27.8,24.4,30.21,NE,46,2.9,5.8,87,0.00,-SN,-SN,0.01,128.0,WeatherDisplay:10.37,2013-04-22 22:11:00,
2013-04-22 16:16:00,27.8,24.4,30.22,NNW,333,3.3,5.8,87,0.00,-SN,-SN,0.01,62.0,WeatherDisplay:10.37,2013-04-22 22:16:00,
2013-04-22 16:21:00,27.7,24.3,30.22,North,355,6.2,14.9,87,0.00,-SN,-SN,0.01,53.0,WeatherDisplay:10.37,2013-04-22 22:21:00,
2013-04-22 16:26:00,27.5,24.1,30.22,NNE,24,3.8,11.5,87,0.00,-SN,-SN,0.01,51.0,WeatherDisplay:10.37,2013-04-22 22:26:00,
2013-04-22 16:31:00,27.4,24.0,30.22,North,351,6.2,11.5,87,0.00,-SN,-SN,0.01,86.0,WeatherDisplay:10.37,2013-04-22 22:31:00,
2013-04-22 16:36:00,27.4,24.0,30.23,NNE,20,1.9,6.9,87,0.00,-SN,-SN,0.01,100.0,WeatherDisplay:10.37,2013-04-22 22:36:00,
2013-04-22 16:41:00,27.1,23.7,30.23,ENE,57,8.0,13.8,87,0.00,-SN,-SN,0.01,91.0,WeatherDisplay:10.37,2013-04-22 22:41:00,
2013-04-22 16:46:00,27.0,23.6,30.23,NE,40,3.6,6.9,87,0.00,-SN,-SN,0.01,47.0,WeatherDisplay:10.37,2013-04-22 22:46:00,
2013-04-22 16:51:00,27.0,23.9,30.23,North,360,4.5,5.8,88,0.00,-SN,-SN,0.01,54.0,WeatherDisplay:10.37,2013-04-22 22:51:00,
2013-04-22 16:56:00,27.0,23.9,30.22,NNW,328,3.8,11.5,88,0.00,-SN,-SN,0.01,86.0,WeatherDisplay:10.37,2013-04-22 22:56:00,
2013-04-22 17:01:00,26.8,23.7,30.22,North,355,5.5,9.2,88,0.00,-SN,-SN,0.01,141.0,WeatherDisplay:10.37,2013-04-22 23:01:00,
2013-04-22 17:06:00,26.7,23.6,30.21,NNE,26,4.6,8.1,88,0.00,-SN,-SN,0.01,104.0,WeatherDisplay:10.37,2013-04-22 23:06:00,
2013-04-22 17:11:00,26.6,23.3,30.22,NNE,30,6.1,12.6,87,0.00,-SN,-SN,0.01,88.0,WeatherDisplay:10.37,2013-04-22 23:11:00,
2013-04-22 17:16:00,26.5,23.2,30.22,NNW,338,4.6,5.8,87,0.00,-SN,-SN,0.01,90.0,WeatherDisplay:10.37,2013-04-22 23:16:00,
2013-04-22 17:21:00,26.5,23.4,30.24,NE,34,0.6,3.0,88,0.00,-SN,-SN,0.01,65.0,WeatherDisplay:10.37,2013-04-22 23:21:00,
2013-04-22 17:26:00,26.6,23.5,30.23,NNE,31,4.9,5.8,88,0.00,-SN,-SN,0.01,56.0,WeatherDisplay:10.37,2013-04-22 23:26:00,
2013-04-22 17:31:00,26.7,23.6,30.23,NE,44,7.0,9.2,88,0.00,-SN,-SN,0.01,74.0,WeatherDisplay:10.37,2013-04-22 23:31:00,
2013-04-22 17:36:00,26.6,23.5,30.24,NW,318,2.7,4.0,88,0.00,-SN,-SN,0.01,60.0,WeatherDisplay:10.37,2013-04-22 23:36:00,
2013-04-22 17:41:00,26.3,23.2,30.26,NE,42,3.6,5.0,88,0.00,-SN,-SN,0.01,63.0,WeatherDisplay:10.37,2013-04-22 23:41:00,
2013-04-22 17:46:00,26.3,23.2,30.28,North,11,5.4,7.0,88,0.00,-SN,-SN,0.01,42.0,WeatherDisplay:10.37,2013-04-22 23:46:00,
2013-04-22 17:51:00,26.2,23.1,30.28,NNE,21,6.0,10.3,88,0.00,-SN,-SN,0.01,69.0,WeatherDisplay:10.37,2013-04-22 23:51:00,
2013-04-22 17:56:00,26.0,22.9,30.28,NE,34,3.3,5.8,88,0.00,-SN,-SN,0.01,79.0,WeatherDisplay:10.37,2013-04-22 23:56:00,
2013-04-22 18:01:00,26.0,22.9,30.27,NE,44,4.9,8.1,88,0.00,-SN,-SN,0.01,70.0,WeatherDisplay:10.37,2013-04-23 00:01:00,
2013-04-22 18:06:00,26.0,22.9,30.26,ENE,69,6.4,11.5,88,0.00,-SN,-SN,0.01,118.0,WeatherDisplay:10.37,2013-04-23 00:06:00,
2013-04-22 18:11:00,26.0,22.9,30.26,North,9,4.6,6.9,88,0.00,-SN,-SN,0.01,84.0,WeatherDisplay:10.37,2013-04-23 00:11:00,
2013-04-22 18:16:00,26.1,23.0,30.25,NNE,32,4.3,5.8,88,0.00,-SN,-SN,0.01,62.0,WeatherDisplay:10.37,2013-04-23 00:16:00,
2013-04-22 18:21:00,25.9,22.8,30.25,NE,52,5.9,7.0,88,0.00,OVC,OVC,0.01,62.0,WeatherDisplay:10.37,2013-04-23 00:21:00,
2013-04-22 18:26:00,25.6,22.5,30.25,ENE,63,3.2,4.6,88,0.00,OVC,OVC,0.01,51.0,WeatherDisplay:10.37,2013-04-23 00:26:00,
2013-04-22 18:31:00,25.3,22.2,30.26,North,5,4.3,9.2,88,0.00,OVC,OVC,0.01,53.0,WeatherDisplay:10.37,2013-04-23 00:31:00,
2013-04-22 18:36:00,25.0,21.9,30.26,NNE,21,3.0,6.9,88,0.00,OVC,OVC,0.01,53.0,WeatherDisplay:10.37,2013-04-23 00:36:00,
2013-04-22 18:41:00,24.9,22.1,30.27,NE,41,3.0,6.9,89,0.00, +SN, +SN,0.01,53.0,WeatherDisplay:10.37,2013-04-23 00:41:00,
2013-04-22 18:46:00,24.9,22.1,30.27,ENE,60,2.5,4.6,89,0.00, +SN, +SN,0.01,81.0,WeatherDisplay:10.37,2013-04-23 00:46:00,
2013-04-22 18:51:00,24.9,22.1,30.29,NNE,24,2.6,6.9,89,0.00, +SN, +SN,0.01,77.0,WeatherDisplay:10.37,2013-04-23 00:51:00,
2013-04-22 18:56:00,24.8,22.0,30.28,NE,36,2.4,3.4,89,0.00, +SN, +SN,0.01,42.0,WeatherDisplay:10.37,2013-04-23 00:56:00,
2013-04-22 19:01:00,24.7,21.9,30.28,NNE,32,5.0,9.2,89,0.00, +SN, +SN,0.01,19.0,WeatherDisplay:10.37,2013-04-23 01:01:00,
2013-04-22 19:06:00,24.7,21.9,30.27,NE,48,3.3,10.3,89,0.00, +SN, +SN,0.01,19.0,WeatherDisplay:10.37,2013-04-23 01:06:00,
2013-04-22 19:11:00,24.7,21.9,30.28,NNE,21,7.3,10.3,89,0.00,-SN,-SN,0.01,19.0,WeatherDisplay:10.37,2013-04-23 01:11:00,
2013-04-22 19:16:00,24.5,21.7,30.28,North,349,4.0,5.8,89,0.00,-SN,-SN,0.01,16.0,WeatherDisplay:10.37,2013-04-23 01:16:00,
2013-04-22 19:21:00,24.4,21.6,30.28,NNE,24,3.0,4.6,89,0.00,-SN,-SN,0.01,16.0,WeatherDisplay:10.37,2013-04-23 01:21:00,
2013-04-22 19:26:00,24.3,21.5,30.29,North,355,3.4,5.8,89,0.00,-SN,-SN,0.01,14.0,WeatherDisplay:10.37,2013-04-23 01:26:00,
2013-04-22 19:31:00,24.2,21.4,30.30,NNE,24,5.8,11.5,89,0.00,-SN,-SN,0.01,7.0,WeatherDisplay:10.37,2013-04-23 01:31:00,
2013-04-22 19:36:00,24.1,21.3,30.30,NE,40,4.4,5.8,89,0.00,-SN,-SN,0.01,5.0,WeatherDisplay:10.37,2013-04-23 01:36:00,
2013-04-22 19:41:00,24.0,21.2,30.30,East,82,1.8,4.6,89,0.00,-SN,-SN,0.01,0.0,WeatherDisplay:10.37,2013-04-23 01:41:00,
2013-04-22 19:46:00,24.0,21.2,30.31,NE,53,1.2,5.0,89,0.00,-SN,-SN,0.01,0.0,WeatherDisplay:10.37,2013-04-23 01:46:00,
2013-04-22 19:51:00,24.0,21.2,30.31,NE,55,3.5,5.0,89,0.00,OVC,OVC,0.01,0.0,WeatherDisplay:10.37,2013-04-23 01:51:00,
2013-04-22 19:56:00,23.9,21.1,30.32,NE,45,2.4,4.6,89,0.00,OVC,OVC,0.01,0.0,WeatherDisplay:10.37,2013-04-23 01:56:00,
2013-04-22 20:01:00,23.9,21.1,30.33,NE,35,2.8,6.9,89,0.00,-SN,-SN,0.01,0.0,WeatherDisplay:10.37,2013-04-23 02:01:00,
2013-04-22 20:06:00,23.9,21.1,30.29,NE,38,5.1,9.2,89,0.00,-SN,-SN,0.01,0.0,WeatherDisplay:10.37,2013-04-23 02:06:00,
2013-04-22 20:11:00,23.9,21.1,30.29,North,9,6.3,11.5,89,0.00,-SN,-SN,0.01,0.0,WeatherDisplay:10.37,2013-04-23 02:11:00,
2013-04-22 20:16:00,23.9,21.4,30.28,NNE,31,5.0,10.0,90,0.00,-SN,-SN,0.01,0.0,WeatherDisplay:10.37,2013-04-23 02:16:00,
2013-04-22 20:21:00,23.8,21.3,30.29,NNE,21,7.7,11.5,90,0.00,-SN,-SN,0.01,0.0,WeatherDisplay:10.37,2013-04-23 02:21:00,
2013-04-22 20:26:00,23.6,20.8,30.30,North,355,2.1,4.6,89,0.00,-SN,-SN,0.01,0.0,WeatherDisplay:10.37,2013-04-23 02:26:00,
2013-04-22 20:31:00,23.4,20.6,30.30,NNE,19,4.2,6.9,89,0.00,-SN,-SN,0.01,0.0,WeatherDisplay:10.37,2013-04-23 02:31:00,
2013-04-22 20:36:00,23.3,20.5,30.31,NNE,24,4.3,8.1,89,0.00,-SN,-SN,0.01,0.0,WeatherDisplay:10.37,2013-04-23 02:36:00,
2013-04-22 20:41:00,23.2,20.4,30.32,North,355,1.9,4.0,89,0.00,-SN,-SN,0.01,0.0,WeatherDisplay:10.37,2013-04-23 02:41:00,
2013-04-22 20:46:00,23.1,20.3,30.32,NNE,19,3.4,4.6,89,0.00,-SN,-SN,0.01,0.0,WeatherDisplay:10.37,2013-04-23 02:46:00,
2013-04-22 20:51:00,23.2,20.4,30.32,NNE,32,2.1,3.4,89,0.00,-SN,-SN,0.01,0.0,WeatherDisplay:10.37,2013-04-23 02:51:00,
2013-04-22 20:56:00,23.3,20.5,30.33,NNE,28,6.0,11.5,89,0.00,-SN,-SN,0.01,0.0,WeatherDisplay:10.37,2013-04-23 02:56:00,
2013-04-22 21:01:00,23.3,20.5,30.31,NE,46,3.3,4.6,89,0.00,-SN,-SN,0.01,0.0,WeatherDisplay:10.37,2013-04-23 03:01:00,
2013-04-22 21:06:00,23.3,20.8,30.29,NNE,26,3.4,5.8,90,0.00,-SN,-SN,0.01,0.0,WeatherDisplay:10.37,2013-04-23 03:06:00,
2013-04-22 21:11:00,23.3,20.8,30.28,NE,47,1.5,4.6,90,0.00,-SN,-SN,0.01,0.0,WeatherDisplay:10.37,2013-04-23 03:11:00,
2013-04-22 21:16:00,23.4,20.9,30.30,NNE,18,1.1,3.4,90,0.00,-SN,-SN,0.01,0.0,WeatherDisplay:10.37,2013-04-23 03:16:00,
2013-04-22 21:21:00,23.4,20.9,30.30,NNE,25,0.4,3.4,90,0.00,-SN,-SN,0.01,0.0,WeatherDisplay:10.37,2013-04-23 03:21:00,
2013-04-22 21:26:00,23.4,20.9,30.29,NNE,20,4.4,9.2,90,0.00,-SN,-SN,0.01,0.0,WeatherDisplay:10.37,2013-04-23 03:26:00,
2013-04-22 21:31:00,23.3,20.8,30.30,NNE,27,3.5,5.0,90,0.00,-SN,-SN,0.01,0.0,WeatherDisplay:10.37,2013-04-23 03:31:00,
2013-04-22 21:36:00,23.3,20.8,30.30,North,11,2.3,4.6,90,0.00,-SN,-SN,0.01,0.0,WeatherDisplay:10.37,2013-04-23 03:36:00,
2013-04-22 21:41:00,23.3,20.8,30.30,NNE,20,2.4,3.4,90,0.00,-SN,-SN,0.01,0.0,WeatherDisplay:10.37,2013-04-23 03:41:00,
2013-04-22 21:46:00,23.3,20.8,30.30,NNE,26,3.6,5.8,90,0.00,-SN,-SN,0.01,0.0,WeatherDisplay:10.37,2013-04-23 03:46:00,
2013-04-22 21:51:00,23.2,20.7,30.30,NNE,28,1.3,3.4,90,0.00, +SN, +SN,0.01,0.0,WeatherDisplay:10.37,2013-04-23 03:51:00,
2013-04-22 21:56:00,23.1,20.6,30.30,NE,55,0.7,3.4,90,0.00, +SN, +SN,0.01,0.0,WeatherDisplay:10.37,2013-04-23 03:56:00,
2013-04-22 22:01:00,23.0,20.5,30.31,ENE,78,2.0,3.4,90,0.00, +SN, +SN,0.01,0.0,WeatherDisplay:10.37,2013-04-23 04:01:00,
2013-04-22 22:06:00,22.9,20.4,30.37,ENE,69,0.8,3.4,90,0.00, +SN, +SN,0.01,0.0,WeatherDisplay:10.37,2013-04-23 04:06:00,
2013-04-22 22:11:00,22.8,20.3,30.37,NE,53,1.8,5.8,90,0.00, +SN, +SN,0.01,0.0,WeatherDisplay:10.37,2013-04-23 04:11:00,
2013-04-22 22:16:00,22.6,20.1,30.37,NE,42,1.6,4.0,90,0.00, +SN, +SN,0.01,0.0,WeatherDisplay:10.37,2013-04-23 04:16:00,
2013-04-22 22:21:00,22.5,20.0,30.35,NE,34,2.0,5.8,90,0.00, +SN, +SN,0.01,0.0,WeatherDisplay:10.37,2013-04-23 04:21:00,
2013-04-22 22:26:00,22.5,20.0,30.35,NNE,32,2.9,4.6,90,0.00, +SN, +SN,0.01,0.0,WeatherDisplay:10.37,2013-04-23 04:26:00,
2013-04-22 22:31:00,22.5,20.0,30.35,ENE,60,1.3,3.4,90,0.00, +SN, +SN,0.01,0.0,WeatherDisplay:10.37,2013-04-23 04:31:00,
2013-04-22 22:36:00,22.4,19.9,30.35,ENE,60,0.9,3.0,90,0.00, +SN, +SN,0.01,0.0,WeatherDisplay:10.37,2013-04-23 04:36:00,
2013-04-22 22:41:00,22.4,19.9,30.37,ENE,60,1.3,3.4,90,0.00, +SN, +SN,0.01,0.0,WeatherDisplay:10.37,2013-04-23 04:41:00,
2013-04-22 22:46:00,22.4,19.9,30.37,NE,42,2.3,3.4,90,0.00, +SN, +SN,0.01,0.0,WeatherDisplay:10.37,2013-04-23 04:46:00,
2013-04-22 22:51:00,22.4,19.9,30.35,NE,45,3.0,6.9,90,0.00, +SN, +SN,0.01,0.0,WeatherDisplay:10.37,2013-04-23 04:51:00,
2013-04-22 22:56:00,22.4,19.9,30.34,ENE,63,2.2,6.9,90,0.00, +SN, +SN,0.01,0.0,WeatherDisplay:10.37,2013-04-23 04:56:00,
2013-04-22 23:01:00,22.3,19.8,30.34,NE,47,2.7,5.8,90,0.00, +SN, +SN,0.01,0.0,WeatherDisplay:10.37,2013-04-23 05:01:00,
2013-04-22 23:06:00,22.2,19.7,30.40,NE,45,0.4,4.0,90,0.00, +SN, +SN,0.01,0.0,WeatherDisplay:10.37,2013-04-23 05:06:00,
2013-04-22 23:11:00,22.1,19.6,30.40,NE,42,2.8,4.6,90,0.00,CLR,CLR,0.01,0.0,WeatherDisplay:10.37,2013-04-23 05:11:00,
2013-04-22 23:16:00,22.1,19.6,30.39,NE,37,4.5,5.0,90,0.00,CLR,CLR,0.01,0.0,WeatherDisplay:10.37,2013-04-23 05:16:00,
2013-04-22 23:21:00,22.1,19.6,30.39,NE,51,1.8,3.4,90,0.00,CLR,CLR,0.01,0.0,WeatherDisplay:10.37,2013-04-23 05:21:00,
2013-04-22 23:26:00,22.0,19.5,30.39,NE,51,2.2,4.0,90,0.00,CLR,CLR,0.01,0.0,WeatherDisplay:10.37,2013-04-23 05:26:00,
2013-04-22 23:31:00,22.0,19.5,30.39,NE,49,1.5,3.4,90,0.00,-SN,-SN,0.01,0.0,WeatherDisplay:10.37,2013-04-23 05:31:00,
2013-04-22 23:36:00,22.1,19.6,30.38,NE,36,0.4,2.3,90,0.00,-SN,-SN,0.01,0.0,WeatherDisplay:10.37,2013-04-23 05:36:00,
2013-04-22 23:41:00,22.1,19.6,30.39,NE,43,0.8,3.4,90,0.00,-SN,-SN,0.01,0.0,WeatherDisplay:10.37,2013-04-23 05:41:00,
2013-04-22 23:46:00,22.1,19.6,30.39,NE,44,2.7,3.4,90,0.00,-SN,-SN,0.01,0.0,WeatherDisplay:10.37,2013-04-23 05:46:00,
2013-04-22 23:51:00,22.1,19.6,30.39,NE,44,1.5,3.4,90,0.00,-SN,-SN,0.01,0.0,WeatherDisplay:10.37,2013-04-23 05:51:00,
2013-04-22 23:56:00,22.0,19.5,30.39,NE,44,1.7,3.4,90,0.00,-SN,-SN,0.01,0.0,WeatherDisplay:10.37,2013-04-23 05:56:00,